createdAt,value
2023-02-16T00:00:58.029Z,3.56
2023-02-16T00:02:14.908Z,3.54
2023-02-16T00:03:21.936Z,3.54
2023-02-16T00:04:26.574Z,3.53
2023-02-16T00:05:33.145Z,3.53
2023-02-16T00:06:34.600Z,3.53
2023-02-16T00:07:36.103Z,3.53
2023-02-16T00:08:37.592Z,3.53
2023-02-16T00:09:39.261Z,3.52
2023-02-16T00:10:40.800Z,3.52
2023-02-16T00:12:01.182Z,3.52
2023-02-16T00:13:42.614Z,3.51
2023-02-16T00:14:44.312Z,3.48
2023-02-16T00:15:46.629Z,3.47
2023-02-16T00:16:49.243Z,3.46
2023-02-16T00:17:51.719Z,3.45
2023-02-16T00:18:53.602Z,3.43
2023-02-16T00:19:55.559Z,3.42
2023-02-16T00:20:57.137Z,3.41
2023-02-16T00:22:00.480Z,3.42
2023-02-16T00:23:01.987Z,3.43
2023-02-16T00:24:03.764Z,3.43
2023-02-16T00:25:05.696Z,3.44
2023-02-16T00:26:25.031Z,3.43
2023-02-16T00:27:26.535Z,3.44
2023-02-16T00:28:28.339Z,3.45
2023-02-16T00:29:33.780Z,3.46
2023-02-16T00:30:35.529Z,3.46
2023-02-16T00:31:39.609Z,3.46
2023-02-16T00:32:41.337Z,3.44
2023-02-16T00:33:42.833Z,3.43
2023-02-16T00:34:45.148Z,3.44
2023-02-16T00:35:47.681Z,3.44
2023-02-16T00:36:50.784Z,3.45
2023-02-16T00:37:52.308Z,3.44
2023-02-16T00:38:53.816Z,3.44
2023-02-16T00:39:55.399Z,3.43
2023-02-16T00:40:57.289Z,3.43
2023-02-16T00:42:02.471Z,3.43
2023-02-16T00:43:03.988Z,3.43
2023-02-16T00:44:13.386Z,3.43
2023-02-16T00:45:20.414Z,3.43
2023-02-16T00:46:22.210Z,3.43
2023-02-16T00:47:36.570Z,3.42
2023-02-16T00:48:38.104Z,3.42
2023-02-16T00:49:39.646Z,3.41
2023-02-16T00:50:41.140Z,3.42
2023-02-16T00:51:44.286Z,3.42
2023-02-16T00:52:46.913Z,3.42
2023-02-16T00:53:48.467Z,3.42
2023-02-16T00:54:49.963Z,3.42
2023-02-16T00:55:52.980Z,3.41
2023-02-16T00:56:55.530Z,3.40
2023-02-16T00:58:15.891Z,3.39
2023-02-16T00:59:19.957Z,3.37
2023-02-16T01:00:31.411Z,3.36
2023-02-16T01:01:34.012Z,3.33
2023-02-16T01:02:35.702Z,3.32
2023-02-16T01:03:37.739Z,3.31
2023-02-16T01:04:40.009Z,3.31
2023-02-16T01:05:41.568Z,3.30
2023-02-16T01:07:01.593Z,3.29
2023-02-16T01:08:27.856Z,3.28
2023-02-16T01:09:47.684Z,3.25
2023-02-16T01:11:09.274Z,3.23
2023-02-16T01:12:17.771Z,3.20
2023-02-16T01:13:19.954Z,3.17
2023-02-16T01:14:21.484Z,3.17
2023-02-16T01:15:25.233Z,3.16
2023-02-16T01:16:37.134Z,3.15
2023-02-16T01:17:39.037Z,3.13
2023-02-16T01:18:40.806Z,3.12
2023-02-16T01:19:42.550Z,3.11
2023-02-16T01:20:44.938Z,3.10
2023-02-16T01:21:46.416Z,3.08
2023-02-16T01:22:48.147Z,3.07
2023-02-16T01:23:49.842Z,3.05
2023-02-16T01:24:51.409Z,3.04
2023-02-16T01:25:52.976Z,3.03
2023-02-16T01:26:54.409Z,3.03
2023-02-16T01:27:56.018Z,3.02
2023-02-16T01:28:57.846Z,3.01
2023-02-16T01:29:59.354Z,3.01
2023-02-16T01:31:01.387Z,3.00
2023-02-16T01:32:03.219Z,2.99
2023-02-16T01:33:04.725Z,2.97
2023-02-16T01:34:06.334Z,2.95
2023-02-16T01:35:09.309Z,2.94
2023-02-16T01:36:33.575Z,2.93
2023-02-16T01:37:35.050Z,2.91
2023-02-16T01:38:36.548Z,2.89
2023-02-16T01:39:38.200Z,2.89
2023-02-16T01:40:51.292Z,2.88
2023-02-16T01:42:22.111Z,2.86
2023-02-16T01:43:42.631Z,2.83
2023-02-16T01:44:54.121Z,2.82
2023-02-16T01:46:05.424Z,2.82
2023-02-16T01:47:21.068Z,2.82
2023-02-16T01:48:28.439Z,2.82
2023-02-16T01:49:29.994Z,2.82
2023-02-16T01:50:47.481Z,2.82
2023-02-16T01:51:57.967Z,2.81
2023-02-16T01:53:12.242Z,2.80
2023-02-16T01:54:34.320Z,2.79
2023-02-16T01:55:47.269Z,2.79
2023-02-16T01:56:54.401Z,2.78
2023-02-16T01:58:20.231Z,2.78
2023-02-16T02:00:25.955Z,2.78
2023-02-16T02:01:39.335Z,2.75
2023-02-16T02:02:48.726Z,2.74
2023-02-16T02:04:09.033Z,2.74
2023-02-16T02:05:35.202Z,2.74
2023-02-16T02:06:37.216Z,2.73
2023-02-16T02:08:16.544Z,2.73
2023-02-16T02:09:25.511Z,2.73
2023-02-16T02:10:36.991Z,2.73
2023-02-16T02:11:45.875Z,2.73
2023-02-16T02:12:54.719Z,2.73
2023-02-16T02:14:08.025Z,2.73
2023-02-16T02:15:11.972Z,2.74
2023-02-16T02:16:18.598Z,2.75
2023-02-16T02:17:21.448Z,2.76
2023-02-16T02:18:23.633Z,2.76
2023-02-16T02:19:25.182Z,2.77
2023-02-16T02:21:13.901Z,2.77
2023-02-16T02:22:43.112Z,2.77
2023-02-16T02:23:50.763Z,2.75
2023-02-16T02:25:32.642Z,2.75
2023-02-16T02:26:40.078Z,2.75
2023-02-16T02:27:56.538Z,2.74
2023-02-16T02:29:45.770Z,2.75
2023-02-16T02:33:04.836Z,2.72
2023-02-16T02:34:06.554Z,2.72
2023-02-16T02:35:28.884Z,2.70
2023-02-16T02:36:42.141Z,2.70
2023-02-16T02:37:56.567Z,2.69
2023-02-16T02:39:16.861Z,2.70
2023-02-16T02:40:25.167Z,2.69
2023-02-16T02:42:03.571Z,2.67
2023-02-16T02:43:18.712Z,2.64
2023-02-16T02:44:24.179Z,2.64
2023-02-16T02:45:34.080Z,2.64
2023-02-16T02:46:36.381Z,2.64
2023-02-16T02:47:43.960Z,2.64
2023-02-16T02:48:45.598Z,2.64
2023-02-16T02:49:54.457Z,2.64
2023-02-16T02:51:21.172Z,2.65
2023-02-16T02:52:23.477Z,2.64
2023-02-16T02:53:25.144Z,2.64
2023-02-16T02:54:51.985Z,2.65
2023-02-16T02:56:12.530Z,2.66
2023-02-16T02:57:36.238Z,2.65
2023-02-16T02:59:10.950Z,2.62
2023-02-16T03:00:38.075Z,2.60
2023-02-16T03:01:46.608Z,2.61
2023-02-16T03:02:52.831Z,2.62
2023-02-16T03:03:57.493Z,2.61
2023-02-16T03:05:02.020Z,2.61
2023-02-16T03:06:04.151Z,2.60
2023-02-16T03:07:08.283Z,2.60
2023-02-16T03:08:13.921Z,2.60
2023-02-16T03:09:16.232Z,2.59
2023-02-16T03:10:41.474Z,2.59
2023-02-16T03:12:03.566Z,2.60
2023-02-16T03:13:11.221Z,2.60
2023-02-16T03:14:26.894Z,2.59
2023-02-16T03:15:30.721Z,2.59
2023-02-16T03:16:44.780Z,2.58
2023-02-16T03:18:05.148Z,2.56
2023-02-16T03:19:27.956Z,2.53
2023-02-16T03:20:48.118Z,2.52
2023-02-16T03:22:09.135Z,2.52
2023-02-16T03:23:29.770Z,2.53
2023-02-16T03:24:50.995Z,2.54
2023-02-16T03:26:11.494Z,2.50
2023-02-16T03:27:53.989Z,2.50
2023-02-16T03:29:15.227Z,2.48
2023-02-16T03:30:18.451Z,2.47
2023-02-16T03:31:26.466Z,2.47
2023-02-16T03:32:28.211Z,2.48
2023-02-16T03:33:30.452Z,2.47
2023-02-16T03:34:34.154Z,2.48
2023-02-16T03:35:36.267Z,2.49
2023-02-16T03:36:41.495Z,2.50
2023-02-16T03:37:44.325Z,2.51
2023-02-16T03:38:45.852Z,2.52
2023-02-16T03:40:06.735Z,2.53
2023-02-16T03:41:08.377Z,2.56
2023-02-16T03:42:10.085Z,2.57
2023-02-16T03:43:11.553Z,2.59
2023-02-16T03:44:13.115Z,2.61
2023-02-16T03:45:14.810Z,2.62
2023-02-16T03:46:16.896Z,2.63
2023-02-16T03:47:18.620Z,2.64
2023-02-16T03:48:20.633Z,2.65
2023-02-16T03:49:22.154Z,2.65
2023-02-16T03:50:25.798Z,2.65
2023-02-16T03:51:27.891Z,2.65
2023-02-16T03:52:29.546Z,2.67
2023-02-16T03:53:31.145Z,2.68
2023-02-16T03:54:32.643Z,2.68
2023-02-16T03:55:42.192Z,2.70
2023-02-16T03:56:43.996Z,2.71
2023-02-16T03:57:45.782Z,2.71
2023-02-16T03:58:47.296Z,2.73
2023-02-16T03:59:50.172Z,2.73
2023-02-16T04:00:52.922Z,2.72
2023-02-16T04:01:54.642Z,2.73
2023-02-16T04:02:56.325Z,2.72
2023-02-16T04:03:57.989Z,2.72
2023-02-16T04:04:59.705Z,2.73
2023-02-16T04:06:01.856Z,2.73
2023-02-16T04:07:03.391Z,2.74
2023-02-16T04:08:05.671Z,2.75
2023-02-16T04:09:07.176Z,2.73
2023-02-16T04:10:08.899Z,2.73
2023-02-16T04:11:28.811Z,2.72
2023-02-16T04:12:36.018Z,2.71
2023-02-16T04:13:37.588Z,2.70
2023-02-16T04:14:39.093Z,2.68
2023-02-16T04:15:40.944Z,2.67
2023-02-16T04:16:42.545Z,2.65
2023-02-16T04:17:44.448Z,2.64
2023-02-16T04:18:46.101Z,2.62
2023-02-16T04:19:47.777Z,2.60
2023-02-16T04:20:49.347Z,2.59
2023-02-16T04:21:52.385Z,2.58
2023-02-16T04:22:54.669Z,2.57
2023-02-16T04:23:56.387Z,2.56
2023-02-16T04:24:57.884Z,2.55
2023-02-16T04:25:59.396Z,2.55
2023-02-16T04:27:00.966Z,2.55
2023-02-16T04:28:02.513Z,2.55
2023-02-16T04:29:04.252Z,2.56
2023-02-16T04:30:08.779Z,2.56
2023-02-16T04:31:10.452Z,2.56
2023-02-16T04:32:12.154Z,2.55
2023-02-16T04:33:14.065Z,2.53
2023-02-16T04:34:15.787Z,2.52
2023-02-16T04:35:18.347Z,2.49
2023-02-16T04:36:19.791Z,2.48
2023-02-16T04:37:21.292Z,2.47
2023-02-16T04:38:22.975Z,2.47
2023-02-16T04:39:24.574Z,2.46
2023-02-16T04:40:26.040Z,2.46
2023-02-16T04:41:27.562Z,2.46
2023-02-16T04:42:29.018Z,2.46
2023-02-16T04:43:31.741Z,2.46
2023-02-16T04:44:33.479Z,2.47
2023-02-16T04:45:34.938Z,2.48
2023-02-16T04:46:36.417Z,2.48
2023-02-16T04:47:37.958Z,2.47
2023-02-16T04:48:39.595Z,2.47
2023-02-16T04:49:41.283Z,2.46
2023-02-16T04:50:42.803Z,2.47
2023-02-16T04:51:44.264Z,2.47
2023-02-16T04:52:45.831Z,2.48
2023-02-16T04:53:47.371Z,2.49
2023-02-16T04:54:49.088Z,2.49
2023-02-16T04:55:50.563Z,2.48
2023-02-16T04:56:52.141Z,2.47
2023-02-16T04:57:53.662Z,2.46
2023-02-16T04:58:55.419Z,2.46
2023-02-16T04:59:57.053Z,2.46
2023-02-16T05:00:58.499Z,2.46
2023-02-16T05:02:00.012Z,2.46
2023-02-16T05:03:01.896Z,2.45
2023-02-16T05:04:03.922Z,2.45
2023-02-16T05:05:06.205Z,2.44
2023-02-16T05:06:07.690Z,2.42
2023-02-16T05:07:09.234Z,2.42
2023-02-16T05:08:10.723Z,2.41
2023-02-16T05:09:12.271Z,2.42
2023-02-16T05:10:14.064Z,2.43
2023-02-16T05:11:33.983Z,2.43
2023-02-16T05:12:54.527Z,2.42
2023-02-16T05:14:16.606Z,2.41
2023-02-16T05:15:18.258Z,2.40
2023-02-16T05:16:21.567Z,2.39
2023-02-16T05:17:25.838Z,2.41
2023-02-16T05:18:27.317Z,2.41
2023-02-16T05:19:29.019Z,2.41
2023-02-16T05:20:49.459Z,2.42
2023-02-16T05:21:50.963Z,2.42
2023-02-16T05:22:52.476Z,2.41
2023-02-16T05:23:53.943Z,2.41
2023-02-16T05:24:56.115Z,2.41
2023-02-16T05:25:58.071Z,2.42
2023-02-16T05:27:01.140Z,2.42
2023-02-16T05:28:02.875Z,2.44
2023-02-16T05:29:05.070Z,2.45
2023-02-16T05:30:07.371Z,2.46
2023-02-16T05:31:09.466Z,2.47
2023-02-16T05:32:11.241Z,2.47
2023-02-16T05:33:12.726Z,2.48
2023-02-16T05:34:14.387Z,2.50
2023-02-16T05:35:16.138Z,2.50
2023-02-16T05:36:17.854Z,2.51
2023-02-16T05:37:19.525Z,2.51
2023-02-16T05:38:20.999Z,2.53
2023-02-16T05:39:22.632Z,2.54
2023-02-16T05:40:24.298Z,2.54
2023-02-16T05:41:26.240Z,2.54
2023-02-16T05:42:27.951Z,2.55
2023-02-16T05:43:29.580Z,2.56
2023-02-16T05:44:31.131Z,2.57
2023-02-16T05:45:32.708Z,2.58
2023-02-16T05:46:37.403Z,2.60
2023-02-16T05:47:39.095Z,2.61
2023-02-16T05:48:40.627Z,2.61
2023-02-16T05:49:42.383Z,2.62
2023-02-16T05:50:43.955Z,2.63
2023-02-16T05:51:45.835Z,2.63
2023-02-16T05:52:47.401Z,2.64
2023-02-16T05:53:48.978Z,2.65
2023-02-16T05:54:50.527Z,2.64
2023-02-16T05:55:52.853Z,2.63
2023-02-16T05:56:55.042Z,2.63
2023-02-16T05:57:56.481Z,2.63
2023-02-16T05:59:00.651Z,2.65
2023-02-16T06:00:04.440Z,2.66
2023-02-16T06:01:06.599Z,2.67
2023-02-16T06:02:09.267Z,2.68
2023-02-16T06:03:10.679Z,2.69
2023-02-16T06:04:14.277Z,2.71
2023-02-16T06:05:16.064Z,2.73
2023-02-16T06:06:17.829Z,2.74
2023-02-16T06:07:19.761Z,2.73
2023-02-16T06:08:21.538Z,2.73
2023-02-16T06:09:23.173Z,2.73
2023-02-16T06:10:26.246Z,2.75
2023-02-16T06:11:36.799Z,2.76
2023-02-16T06:12:38.774Z,2.77
2023-02-16T06:13:40.214Z,2.78
2023-02-16T06:14:41.673Z,2.78
2023-02-16T06:15:43.323Z,2.78
2023-02-16T06:16:48.525Z,2.79
2023-02-16T06:17:50.274Z,2.79
2023-02-16T06:18:52.482Z,2.79
2023-02-16T06:19:54.394Z,2.81
2023-02-16T06:20:56.604Z,2.82
2023-02-16T06:21:58.031Z,2.82
2023-02-16T06:22:59.780Z,2.82
2023-02-16T06:24:01.796Z,2.81
2023-02-16T06:25:03.351Z,2.79
2023-02-16T06:26:04.814Z,2.78
2023-02-16T06:27:06.636Z,2.78
2023-02-16T06:28:08.626Z,2.77
2023-02-16T06:29:10.574Z,2.76
2023-02-16T06:30:12.658Z,2.76
2023-02-16T06:31:14.329Z,2.77
2023-02-16T06:32:17.573Z,2.77
2023-02-16T06:33:19.414Z,2.78
2023-02-16T06:34:20.834Z,2.79
2023-02-16T06:35:22.351Z,2.81
2023-02-16T06:36:24.417Z,2.82
2023-02-16T06:37:26.054Z,2.83
2023-02-16T06:38:27.873Z,2.84
2023-02-16T06:39:29.453Z,2.84
2023-02-16T06:40:30.964Z,2.84
2023-02-16T06:41:37.117Z,2.85
2023-02-16T06:42:38.613Z,2.86
2023-02-16T06:43:40.407Z,2.84
2023-02-16T06:44:43.691Z,2.83
2023-02-16T06:45:45.839Z,2.81
2023-02-16T06:46:48.077Z,2.82
2023-02-16T06:47:49.663Z,2.82
2023-02-16T06:48:51.349Z,2.83
2023-02-16T06:49:52.817Z,2.83
2023-02-16T06:50:54.593Z,2.81
2023-02-16T06:51:56.141Z,2.82
2023-02-16T06:52:57.662Z,2.81
2023-02-16T06:53:59.565Z,2.81
2023-02-16T06:55:01.426Z,2.80
2023-02-16T06:56:03.179Z,2.79
2023-02-16T06:57:04.618Z,2.77
2023-02-16T06:58:06.763Z,2.76
2023-02-16T06:59:10.530Z,2.75
2023-02-16T07:00:12.909Z,2.74
2023-02-16T07:01:14.862Z,2.74
2023-02-16T07:02:16.394Z,2.73
2023-02-16T07:03:17.922Z,2.73
2023-02-16T07:04:19.797Z,2.73
2023-02-16T07:05:21.292Z,2.73
2023-02-16T07:06:24.922Z,2.74
2023-02-16T07:07:26.525Z,2.74
2023-02-16T07:08:28.147Z,2.74
2023-02-16T07:09:29.749Z,2.73
2023-02-16T07:10:43.894Z,2.72
2023-02-16T07:11:50.331Z,2.73
2023-02-16T07:12:51.735Z,2.71
2023-02-16T07:13:53.200Z,2.72
2023-02-16T07:14:54.959Z,2.73
2023-02-16T07:15:57.012Z,2.73
2023-02-16T07:17:02.516Z,2.74
2023-02-16T07:18:04.955Z,2.74
2023-02-16T07:19:06.902Z,2.75
2023-02-16T07:20:08.919Z,2.76
2023-02-16T07:21:10.481Z,2.77
2023-02-16T07:22:12.020Z,2.76
2023-02-16T07:23:13.548Z,2.77
2023-02-16T07:24:15.122Z,2.77
2023-02-16T07:25:16.989Z,2.78
2023-02-16T07:26:18.613Z,2.79
2023-02-16T07:27:20.036Z,2.81
2023-02-16T07:28:21.577Z,2.83
2023-02-16T07:29:23.118Z,2.85
2023-02-16T07:30:24.872Z,2.85
2023-02-16T07:31:26.608Z,2.85
2023-02-16T07:32:28.954Z,2.85
2023-02-16T07:33:30.476Z,2.85
2023-02-16T07:34:32.252Z,2.85
2023-02-16T07:35:34.941Z,2.86
2023-02-16T07:36:36.465Z,2.86
2023-02-16T07:37:38.170Z,2.86
2023-02-16T07:38:45.266Z,2.87
2023-02-16T07:40:16.542Z,2.89
2023-02-16T07:41:19.147Z,2.89
2023-02-16T07:42:21.122Z,2.90
2023-02-16T07:43:23.633Z,2.92
2023-02-16T07:44:25.125Z,2.94
2023-02-16T07:45:27.259Z,2.97
2023-02-16T07:46:28.820Z,2.99
2023-02-16T07:48:49.569Z,3.03
2023-02-16T07:49:52.469Z,3.04
2023-02-16T07:50:55.338Z,3.05
2023-02-16T07:51:58.386Z,3.07
2023-02-16T07:53:02.853Z,3.06
2023-02-16T07:54:06.137Z,3.05
2023-02-16T07:55:10.061Z,3.05
2023-02-16T07:56:27.716Z,3.04
2023-02-16T07:57:30.757Z,3.02
2023-02-16T07:58:33.638Z,3.02
2023-02-16T07:59:36.485Z,3.02
2023-02-16T08:00:39.341Z,3.03
2023-02-16T08:01:42.588Z,3.04
2023-02-16T08:02:45.899Z,3.03
2023-02-16T08:03:49.339Z,3.04
2023-02-16T08:04:52.957Z,3.07
2023-02-16T08:05:55.923Z,3.09
2023-02-16T08:06:58.840Z,3.13
2023-02-16T08:08:01.927Z,3.16
2023-02-16T08:09:05.274Z,3.16
2023-02-16T08:10:09.021Z,3.17
2023-02-16T08:11:12.927Z,3.19
2023-02-16T08:12:17.105Z,3.21
2023-02-16T08:13:20.419Z,3.23
2023-02-16T08:14:23.313Z,3.24
2023-02-16T08:15:26.208Z,3.24
2023-02-16T08:16:29.575Z,3.24
2023-02-16T08:17:32.492Z,3.24
2023-02-16T08:18:35.725Z,3.24
2023-02-16T08:19:38.903Z,3.22
2023-02-16T08:21:03.320Z,3.23
2023-02-16T08:22:06.178Z,3.25
2023-02-16T08:23:10.384Z,3.27
2023-02-16T08:24:13.817Z,3.27
2023-02-16T08:25:16.728Z,3.27
2023-02-16T08:26:21.188Z,3.28
2023-02-16T08:27:24.921Z,3.29
2023-02-16T08:28:28.967Z,3.30
2023-02-16T08:29:32.829Z,3.31
2023-02-16T08:30:36.293Z,3.31
2023-02-16T08:31:39.642Z,3.33
2023-02-16T08:32:43.660Z,3.35
2023-02-16T08:33:48.028Z,3.38
2023-02-16T08:34:51.359Z,3.41
2023-02-16T08:35:54.203Z,3.43
2023-02-16T08:36:57.693Z,3.44
2023-02-16T08:38:02.398Z,3.45
2023-02-16T08:39:17.251Z,3.46
2023-02-16T08:40:24.690Z,3.48
2023-02-16T08:41:36.223Z,3.50
2023-02-16T08:42:39.415Z,3.50
2023-02-16T08:43:42.388Z,3.50
2023-02-16T08:44:45.410Z,3.52
2023-02-16T08:45:49.256Z,3.53
2023-02-16T08:46:55.169Z,3.53
2023-02-16T08:48:01.334Z,3.55
2023-02-16T08:49:04.197Z,3.56
2023-02-16T08:50:07.851Z,3.58
2023-02-16T08:51:20.330Z,3.60
2023-02-16T08:52:23.241Z,3.63
2023-02-16T08:53:28.063Z,3.65
2023-02-16T08:54:33.524Z,3.68
2023-02-16T08:55:36.565Z,3.72
2023-02-16T08:56:39.885Z,3.72
2023-02-16T08:57:42.880Z,3.72
2023-02-16T08:58:47.150Z,3.72
2023-02-16T09:00:10.022Z,3.74
2023-02-16T09:01:15.343Z,3.78
2023-02-16T09:02:18.443Z,3.81
2023-02-16T09:03:22.329Z,3.86
2023-02-16T09:04:25.775Z,3.89
2023-02-16T09:05:28.759Z,3.92
2023-02-16T09:06:31.668Z,3.95
2023-02-16T09:07:35.129Z,3.96
2023-02-16T09:08:38.662Z,3.98
2023-02-16T09:09:42.785Z,4.01
2023-02-16T09:10:46.032Z,4.03
2023-02-16T09:11:49.490Z,4.04
2023-02-16T09:12:52.534Z,4.06
2023-02-16T09:13:55.696Z,4.09
2023-02-16T09:14:58.547Z,4.09
2023-02-16T09:16:09.878Z,4.08
2023-02-16T09:17:12.837Z,4.09
2023-02-16T09:18:16.609Z,4.11
2023-02-16T09:19:21.380Z,4.13
2023-02-16T09:20:24.387Z,4.15
2023-02-16T09:21:28.349Z,4.17
2023-02-16T09:22:31.741Z,4.21
2023-02-16T09:23:35.796Z,4.26
2023-02-16T09:24:38.922Z,4.32
2023-02-16T09:25:42.117Z,4.36
2023-02-16T09:26:45.008Z,4.40
2023-02-16T09:27:48.015Z,4.44
2023-02-16T09:28:53.384Z,4.45
2023-02-16T09:29:58.690Z,4.50
2023-02-16T09:31:11.666Z,4.54
2023-02-16T09:32:15.504Z,4.59
2023-02-16T09:33:18.465Z,4.62
2023-02-16T09:34:23.419Z,4.64
2023-02-16T09:35:27.220Z,4.69
2023-02-16T09:36:30.846Z,4.74
2023-02-16T09:37:33.689Z,4.79
2023-02-16T09:38:39.670Z,4.84
2023-02-16T09:39:42.794Z,4.88
2023-02-16T09:40:45.719Z,4.94
2023-02-16T09:42:24.465Z,4.98
2023-02-16T09:43:49.378Z,5.02
2023-02-16T09:45:11.687Z,5.04
2023-02-16T09:46:22.509Z,5.09
2023-02-16T09:47:31.556Z,5.11
2023-02-16T09:48:43.124Z,5.17
2023-02-16T09:49:47.113Z,5.21
2023-02-16T09:50:54.874Z,5.24
2023-02-16T09:52:27.242Z,5.25
2023-02-16T09:53:41.896Z,5.25
2023-02-16T09:54:50.441Z,5.27
2023-02-16T09:56:22.648Z,5.27
2023-02-16T09:57:31.422Z,5.23
2023-02-16T09:58:45.323Z,5.25
2023-02-16T09:59:56.447Z,5.24
2023-02-16T10:01:29.066Z,5.26
2023-02-16T10:02:54.662Z,5.29
2023-02-16T10:04:16.745Z,5.35
2023-02-16T10:05:42.382Z,5.43
2023-02-16T10:07:07.565Z,5.52
2023-02-16T10:08:15.679Z,5.57
2023-02-16T10:09:20.628Z,5.57
2023-02-16T10:10:29.695Z,5.58
2023-02-16T10:11:51.549Z,5.59
2023-02-16T10:13:05.286Z,5.62
2023-02-16T10:14:23.215Z,5.63
2023-02-16T10:15:30.439Z,5.66
2023-02-16T10:16:42.851Z,5.70
2023-02-16T10:17:52.192Z,5.75
2023-02-16T10:18:56.601Z,5.78
2023-02-16T10:20:13.105Z,5.82
2023-02-16T10:21:22.367Z,5.86
2023-02-16T10:22:44.367Z,5.91
2023-02-16T10:24:02.196Z,5.94
2023-02-16T10:25:16.981Z,5.97
2023-02-16T10:27:02.596Z,6.01
2023-02-16T10:28:16.560Z,6.06
2023-02-16T10:29:23.346Z,6.11
2023-02-16T10:30:32.562Z,6.16
2023-02-16T10:31:44.674Z,6.21
2023-02-16T10:32:56.738Z,6.26
2023-02-16T10:34:27.640Z,6.32
2023-02-16T10:35:46.200Z,6.36
2023-02-16T10:37:02.345Z,6.40
2023-02-16T10:38:18.371Z,6.46
2023-02-16T10:39:42.576Z,6.53
2023-02-16T10:41:12.277Z,6.56
2023-02-16T10:42:43.790Z,6.60
2023-02-16T10:43:53.094Z,6.63
2023-02-16T10:45:34.833Z,6.67
2023-02-16T10:46:43.076Z,6.72
2023-02-16T10:47:47.287Z,6.73
2023-02-16T10:48:54.526Z,6.76
2023-02-16T10:49:57.999Z,6.78
2023-02-16T10:51:16.741Z,6.80
2023-02-16T10:52:21.141Z,6.85
2023-02-16T10:53:52.458Z,6.87
2023-02-16T10:54:56.302Z,6.89
2023-02-16T10:55:59.667Z,6.90
2023-02-16T10:57:30.029Z,6.91
2023-02-16T10:58:42.033Z,6.92
2023-02-16T10:59:46.996Z,6.96
2023-02-16T11:00:58.619Z,7.00
2023-02-16T11:02:04.526Z,7.04
2023-02-16T11:03:12.441Z,7.08
2023-02-16T11:04:34.664Z,7.12
2023-02-16T11:05:39.804Z,7.19
2023-02-16T11:06:42.766Z,7.21
2023-02-16T11:07:57.497Z,7.23
2023-02-16T11:09:03.164Z,7.26
2023-02-16T11:10:20.858Z,7.26
2023-02-16T11:11:27.839Z,7.29
2023-02-16T11:12:35.329Z,7.31
2023-02-16T11:13:38.540Z,7.31
2023-02-16T11:14:48.749Z,7.34
2023-02-16T11:15:54.822Z,7.37
2023-02-16T11:17:12.684Z,7.36
2023-02-16T11:18:30.398Z,7.39
2023-02-16T11:19:35.465Z,7.42
2023-02-16T11:20:42.252Z,7.44
2023-02-16T11:21:56.507Z,7.48
2023-02-16T11:23:14.645Z,7.52
2023-02-16T11:24:38.279Z,7.59
2023-02-16T11:25:42.577Z,7.64
2023-02-16T11:27:01.098Z,7.67
2023-02-16T11:28:05.397Z,7.70
2023-02-16T11:29:19.986Z,7.75
2023-02-16T11:30:43.571Z,7.82
2023-02-16T11:31:46.916Z,7.91
2023-02-16T11:32:51.923Z,7.93
2023-02-16T11:34:24.227Z,7.96
2023-02-16T11:35:27.621Z,8.02
2023-02-16T11:36:47.340Z,8.04
2023-02-16T11:37:51.121Z,8.08
2023-02-16T11:39:14.061Z,8.09
2023-02-16T11:40:24.663Z,8.13
2023-02-16T11:41:31.731Z,8.15
2023-02-16T11:42:47.458Z,8.17
2023-02-16T11:43:50.592Z,8.20
2023-02-16T11:44:57.173Z,8.26
2023-02-16T11:46:05.113Z,8.32
2023-02-16T11:47:36.644Z,8.40
2023-02-16T11:48:39.630Z,8.50
2023-02-16T11:49:42.750Z,8.61
2023-02-16T11:50:57.111Z,8.71
2023-02-16T11:52:01.611Z,8.83
2023-02-16T11:53:10.445Z,8.91
2023-02-16T11:54:17.997Z,8.98
2023-02-16T11:55:28.066Z,9.02
2023-02-16T11:56:34.423Z,9.11
2023-02-16T11:57:38.794Z,9.20
2023-02-16T11:58:41.694Z,9.28
2023-02-16T11:59:44.573Z,9.32
2023-02-16T12:01:04.626Z,9.35
2023-02-16T12:02:10.805Z,9.37
2023-02-16T12:03:48.080Z,9.37
2023-02-16T12:05:31.937Z,9.41
2023-02-16T12:06:43.092Z,9.50
2023-02-16T12:08:20.593Z,9.60
2023-02-16T12:10:00.196Z,9.76
2023-02-16T12:11:15.977Z,9.94
2023-02-16T12:12:43.739Z,10.09
2023-02-16T12:14:04.412Z,10.25
2023-02-16T12:15:25.757Z,10.37
2023-02-16T12:16:40.990Z,10.48
2023-02-16T12:18:15.379Z,10.58
2023-02-16T12:19:41.894Z,10.70
2023-02-16T12:20:54.839Z,10.81
2023-02-16T12:22:24.512Z,10.90
2023-02-16T12:23:39.046Z,11.02
2023-02-16T12:25:03.904Z,11.10
2023-02-16T12:26:07.270Z,11.16
2023-02-16T12:27:18.585Z,11.13
2023-02-16T12:29:00.106Z,11.13
2023-02-16T12:30:08.193Z,11.21
2023-02-16T12:31:47.549Z,11.29
2023-02-16T12:33:15.924Z,11.43
2023-02-16T12:34:47.084Z,11.58
2023-02-16T12:36:12.359Z,11.69
2023-02-16T12:38:13.080Z,11.81
2023-02-16T12:39:29.951Z,11.95
2023-02-16T12:40:46.605Z,12.03
2023-02-16T12:42:21.115Z,12.16
2023-02-16T12:43:24.188Z,12.30
2023-02-16T12:44:42.786Z,12.40
2023-02-16T12:45:47.241Z,12.56
2023-02-16T12:47:00.703Z,12.67
2023-02-16T12:48:40.197Z,12.78
2023-02-16T12:49:55.483Z,12.88
2023-02-16T12:51:02.683Z,12.98
2023-02-16T12:52:29.620Z,13.11
2023-02-16T12:53:57.060Z,13.21
2023-02-16T12:55:20.765Z,13.16
2023-02-16T12:56:31.277Z,13.17
2023-02-16T12:57:34.910Z,13.13
2023-02-16T12:58:42.530Z,13.13
2023-02-16T12:59:59.573Z,13.06
2023-02-16T13:01:23.716Z,12.98
2023-02-16T13:02:34.231Z,12.88
2023-02-16T13:03:53.075Z,12.80
2023-02-16T13:05:12.128Z,12.80
2023-02-16T13:06:33.957Z,12.90
2023-02-16T13:07:43.182Z,12.95
2023-02-16T13:09:05.290Z,13.00
2023-02-16T13:10:24.587Z,13.10
2023-02-16T13:11:38.172Z,13.19
2023-02-16T13:13:16.202Z,13.25
2023-02-16T13:14:25.463Z,13.27
2023-02-16T13:15:39.194Z,13.30
2023-02-16T13:16:59.255Z,13.27
2023-02-16T13:18:07.090Z,13.26
2023-02-16T13:19:14.493Z,13.30
2023-02-16T13:20:20.717Z,13.28
2023-02-16T13:22:07.348Z,13.27
2023-02-16T13:23:22.503Z,13.36
2023-02-16T13:25:13.012Z,13.40
2023-02-16T13:26:38.054Z,13.46
2023-02-16T13:28:12.849Z,13.44
2023-02-16T13:29:53.324Z,13.46
2023-02-16T13:31:23.817Z,13.43
2023-02-16T13:32:38.659Z,13.37
2023-02-16T13:34:19.164Z,13.26
2023-02-16T13:35:33.751Z,13.30
2023-02-16T13:37:23.968Z,13.32
2023-02-16T13:38:56.978Z,13.35
2023-02-16T13:40:29.470Z,13.41
2023-02-16T13:41:44.820Z,13.38
2023-02-16T13:42:57.976Z,13.31
2023-02-16T13:44:07.968Z,13.19
2023-02-16T13:45:32.843Z,13.06
2023-02-16T13:46:46.892Z,12.90
2023-02-16T13:47:53.526Z,12.82
2023-02-16T13:48:57.751Z,12.80
2023-02-16T13:50:05.228Z,12.78
2023-02-16T13:51:20.956Z,12.80
2023-02-16T13:52:37.264Z,12.83
2023-02-16T13:53:42.963Z,12.88
2023-02-16T13:54:50.204Z,12.89
2023-02-16T13:56:36.299Z,12.90
2023-02-16T13:57:50.827Z,12.82
2023-02-16T13:58:57.923Z,12.75
2023-02-16T14:00:05.841Z,12.71
2023-02-16T14:01:32.371Z,12.67
2023-02-16T14:03:04.178Z,12.64
2023-02-16T14:04:23.888Z,12.59
2023-02-16T14:05:31.242Z,12.51
2023-02-16T14:06:40.084Z,12.45
2023-02-16T14:07:43.375Z,12.38
2023-02-16T14:09:12.284Z,12.32
2023-02-16T14:10:16.008Z,12.28
2023-02-16T14:11:19.660Z,12.18
2023-02-16T14:12:36.109Z,12.09
2023-02-16T14:13:38.946Z,11.99
2023-02-16T14:14:41.921Z,11.94
2023-02-16T14:15:53.198Z,11.93
2023-02-16T14:16:56.770Z,11.91
2023-02-16T14:17:59.634Z,11.87
2023-02-16T14:19:25.132Z,11.80
2023-02-16T14:20:30.127Z,11.71
2023-02-16T14:21:42.794Z,11.67
2023-02-16T14:22:45.592Z,11.63
2023-02-16T14:23:56.352Z,11.61
2023-02-16T14:25:02.892Z,11.58
2023-02-16T14:26:08.173Z,11.54
2023-02-16T14:27:13.331Z,11.48
2023-02-16T14:28:16.136Z,11.43
2023-02-16T14:29:24.493Z,11.43
2023-02-16T14:30:34.634Z,11.43
2023-02-16T14:31:47.046Z,11.41
2023-02-16T14:33:01.621Z,11.34
2023-02-16T14:34:15.495Z,11.25
2023-02-16T14:35:27.384Z,11.16
2023-02-16T14:36:31.369Z,11.06
2023-02-16T14:37:41.561Z,11.00
2023-02-16T14:38:50.666Z,10.95
2023-02-16T14:40:07.735Z,10.89
2023-02-16T14:41:24.591Z,10.79
2023-02-16T14:42:34.872Z,10.72
2023-02-16T14:43:44.357Z,10.67
2023-02-16T14:44:50.337Z,10.55
2023-02-16T14:46:18.236Z,10.41
2023-02-16T14:47:34.922Z,10.28
2023-02-16T14:48:51.663Z,10.17
2023-02-16T14:50:22.355Z,10.07
2023-02-16T14:51:46.742Z,9.98
2023-02-16T14:53:21.676Z,9.89
2023-02-16T14:54:50.583Z,9.86
2023-02-16T14:56:09.099Z,9.80
2023-02-16T14:57:27.249Z,9.76
2023-02-16T14:58:51.920Z,9.69
2023-02-16T15:00:03.226Z,9.60
2023-02-16T15:01:17.734Z,9.50
2023-02-16T15:02:36.121Z,9.40
2023-02-16T15:03:48.335Z,9.31
2023-02-16T15:04:51.486Z,9.24
2023-02-16T15:06:04.400Z,9.18
2023-02-16T15:07:07.703Z,9.12
2023-02-16T15:08:22.915Z,9.06
2023-02-16T15:09:31.219Z,8.99
2023-02-16T15:10:34.362Z,8.93
2023-02-16T15:12:01.082Z,8.86
2023-02-16T15:13:04.425Z,8.75
2023-02-16T15:14:11.415Z,8.68
2023-02-16T15:15:21.289Z,8.60
2023-02-16T15:16:24.745Z,8.53
2023-02-16T15:17:46.045Z,8.46
2023-02-16T15:18:55.385Z,8.37